sensor_id;sensor_type;location;lat;lon;timestamp;P1;durP1;ratioP1;P2;durP2;ratioP2
69714;SDS011;56981;53.532;49.398;2023-03-01T00:01:51;6.75;;;3.55;;
69714;SDS011;56981;53.532;49.398;2023-03-01T00:04:17;9.15;;;4.40;;
69714;SDS011;56981;53.532;49.398;2023-03-01T00:06:43;8.10;;;4.03;;
69714;SDS011;56981;53.532;49.398;2023-03-01T00:09:12;10.43;;;5.03;;
69714;SDS011;56981;53.532;49.398;2023-03-01T00:11:39;6.10;;;2.60;;
69714;SDS011;56981;53.532;49.398;2023-03-01T00:14:05;7.47;;;3.70;;
69714;SDS011;56981;53.532;49.398;2023-03-01T00:16:33;11.30;;;4.57;;
69714;SDS011;56981;53.532;49.398;2023-03-01T00:19:02;8.27;;;4.43;;
69714;SDS011;56981;53.532;49.398;2023-03-01T00:21:28;11.35;;;4.47;;
69714;SDS011;56981;53.532;49.398;2023-03-01T00:23:54;10.40;;;4.82;;
69714;SDS011;56981;53.532;49.398;2023-03-01T00:26:21;9.20;;;4.38;;
69714;SDS011;56981;53.532;49.398;2023-03-01T00:28:48;11.48;;;4.72;;
69714;SDS011;56981;53.532;49.398;2023-03-01T00:31:15;10.10;;;4.85;;
69714;SDS011;56981;53.532;49.398;2023-03-01T00:33:44;8.35;;;3.42;;
69714;SDS011;56981;53.532;49.398;2023-03-01T00:36:12;6.47;;;3.38;;
69714;SDS011;56981;53.532;49.398;2023-03-01T00:38:40;9.40;;;4.10;;
69714;SDS011;56981;53.532;49.398;2023-03-01T00:41:09;6.60;;;4.05;;
69714;SDS011;56981;53.532;49.398;2023-03-01T00:43:39;8.20;;;4.40;;
69714;SDS011;56981;53.532;49.398;2023-03-01T00:46:08;10.27;;;5.40;;
69714;SDS011;56981;53.532;49.398;2023-03-01T00:48:36;8.60;;;4.30;;
69714;SDS011;56981;53.532;49.398;2023-03-01T00:51:09;11.20;;;4.88;;
69714;SDS011;56981;53.532;49.398;2023-03-01T00:53:36;6.13;;;3.38;;
69714;SDS011;56981;53.532;49.398;2023-03-01T00:56:02;12.98;;;5.25;;
69714;SDS011;56981;53.532;49.398;2023-03-01T00:58:30;13.23;;;5.50;;
69714;SDS011;56981;53.532;49.398;2023-03-01T01:00:56;5.25;;;3.30;;
69714;SDS011;56981;53.532;49.398;2023-03-01T01:03:22;9.23;;;4.38;;
69714;SDS011;56981;53.532;49.398;2023-03-01T01:05:50;7.80;;;4.00;;
69714;SDS011;56981;53.532;49.398;2023-03-01T01:08:18;9.32;;;4.18;;
69714;SDS011;56981;53.532;49.398;2023-03-01T01:10:44;9.02;;;4.75;;
69714;SDS011;56981;53.532;49.398;2023-03-01T01:13:12;9.52;;;4.50;;
69714;SDS011;56981;53.532;49.398;2023-03-01T01:15:38;9.80;;;3.03;;
69714;SDS011;56981;53.532;49.398;2023-03-01T01:18:05;8.90;;;4.40;;
69714;SDS011;56981;53.532;49.398;2023-03-01T01:20:31;7.10;;;3.53;;
69714;SDS011;56981;53.532;49.398;2023-03-01T01:22:58;10.10;;;4.93;;
69714;SDS011;56981;53.532;49.398;2023-03-01T01:25:24;12.98;;;5.30;;
69714;SDS011;56981;53.532;49.398;2023-03-01T01:27:52;3.97;;;2.78;;
69714;SDS011;56981;53.532;49.398;2023-03-01T01:30:18;8.05;;;3.53;;
69714;SDS011;56981;53.532;49.398;2023-03-01T01:32:44;5.25;;;3.15;;
69714;SDS011;56981;53.532;49.398;2023-03-01T01:35:11;3.20;;;1.98;;
69714;SDS011;56981;53.532;49.398;2023-03-01T01:37:37;7.15;;;3.17;;
69714;SDS011;56981;53.532;49.398;2023-03-01T01:40:03;5.88;;;3.10;;
69714;SDS011;56981;53.532;49.398;2023-03-01T01:42:29;7.15;;;3.13;;
69714;SDS011;56981;53.532;49.398;2023-03-01T01:47:59;7.75;;;3.45;;
69714;SDS011;56981;53.532;49.398;2023-03-01T01:50:29;9.85;;;4.35;;
69714;SDS011;56981;53.532;49.398;2023-03-01T01:53:05;7.90;;;2.25;;
69714;SDS011;56981;53.532;49.398;2023-03-01T01:55:35;8.85;;;4.47;;
69714;SDS011;56981;53.532;49.398;2023-03-01T01:58:05;7.80;;;3.55;;
69714;SDS011;56981;53.532;49.398;2023-03-01T02:00:34;6.53;;;3.00;;
69714;SDS011;56981;53.532;49.398;2023-03-01T02:03:02;2.97;;;1.65;;
69714;SDS011;56981;53.532;49.398;2023-03-01T02:05:45;4.90;;;3.10;;
69714;SDS011;56981;53.532;49.398;2023-03-01T02:08:16;9.15;;;3.30;;
69714;SDS011;56981;53.532;49.398;2023-03-01T02:10:45;9.90;;;4.53;;
69714;SDS011;56981;53.532;49.398;2023-03-01T02:13:13;8.55;;;3.85;;
69714;SDS011;56981;53.532;49.398;2023-03-01T02:15:40;8.95;;;4.32;;
69714;SDS011;56981;53.532;49.398;2023-03-01T02:18:07;9.25;;;3.67;;
69714;SDS011;56981;53.532;49.398;2023-03-01T02:20:39;8.50;;;3.72;;
69714;SDS011;56981;53.532;49.398;2023-03-01T02:23:27;11.05;;;4.13;;
69714;SDS011;56981;53.532;49.398;2023-03-01T02:28:38;5.68;;;2.95;;
69714;SDS011;56981;53.532;49.398;2023-03-01T02:31:06;6.55;;;3.30;;
69714;SDS011;56981;53.532;49.398;2023-03-01T02:33:51;2.95;;;1.67;;
69714;SDS011;56981;53.532;49.398;2023-03-01T02:36:20;8.77;;;4.07;;
69714;SDS011;56981;53.532;49.398;2023-03-01T02:38:49;7.13;;;3.40;;
69714;SDS011;56981;53.532;49.398;2023-03-01T02:41:19;10.57;;;4.35;;
69714;SDS011;56981;53.532;49.398;2023-03-01T02:43:46;10.07;;;4.70;;
69714;SDS011;56981;53.532;49.398;2023-03-01T02:46:17;9.63;;;3.95;;
69714;SDS011;56981;53.532;49.398;2023-03-01T02:54:08;5.72;;;3.25;;
69714;SDS011;56981;53.532;49.398;2023-03-01T02:56:43;8.80;;;3.97;;
69714;SDS011;56981;53.532;49.398;2023-03-01T02:59:14;9.75;;;4.45;;
69714;SDS011;56981;53.532;49.398;2023-03-01T03:01:41;6.28;;;3.17;;
69714;SDS011;56981;53.532;49.398;2023-03-01T03:04:09;8.65;;;3.75;;
69714;SDS011;56981;53.532;49.398;2023-03-01T03:06:42;3.88;;;2.40;;
69714;SDS011;56981;53.532;49.398;2023-03-01T03:09:11;6.05;;;2.47;;
69714;SDS011;56981;53.532;49.398;2023-03-01T03:11:38;5.85;;;2.80;;
69714;SDS011;56981;53.532;49.398;2023-03-01T03:14:09;9.32;;;4.05;;
69714;SDS011;56981;53.532;49.398;2023-03-01T03:16:39;8.13;;;4.18;;
69714;SDS011;56981;53.532;49.398;2023-03-01T03:19:10;3.92;;;2.55;;
69714;SDS011;56981;53.532;49.398;2023-03-01T03:21:36;6.22;;;2.72;;
69714;SDS011;56981;53.532;49.398;2023-03-01T03:24:02;4.93;;;3.22;;
69714;SDS011;56981;53.532;49.398;2023-03-01T03:26:29;9.30;;;3.95;;
69714;SDS011;56981;53.532;49.398;2023-03-01T03:28:55;9.57;;;4.25;;
69714;SDS011;56981;53.532;49.398;2023-03-01T03:31:22;9.90;;;4.18;;
69714;SDS011;56981;53.532;49.398;2023-03-01T03:33:48;8.98;;;4.15;;
69714;SDS011;56981;53.532;49.398;2023-03-01T03:36:18;8.32;;;3.72;;
69714;SDS011;56981;53.532;49.398;2023-03-01T03:38:47;10.75;;;3.80;;
69714;SDS011;56981;53.532;49.398;2023-03-01T03:41:14;5.28;;;2.92;;
69714;SDS011;56981;53.532;49.398;2023-03-01T03:43:40;7.35;;;3.65;;
69714;SDS011;56981;53.532;49.398;2023-03-01T03:46:08;7.15;;;3.47;;
69714;SDS011;56981;53.532;49.398;2023-03-01T03:48:37;7.28;;;4.07;;
69714;SDS011;56981;53.532;49.398;2023-03-01T03:51:05;7.10;;;3.17;;
69714;SDS011;56981;53.532;49.398;2023-03-01T03:53:32;4.82;;;3.08;;
69714;SDS011;56981;53.532;49.398;2023-03-01T03:55:58;8.98;;;3.58;;
69714;SDS011;56981;53.532;49.398;2023-03-01T03:58:25;9.57;;;4.38;;
69714;SDS011;56981;53.532;49.398;2023-03-01T04:00:52;8.55;;;4.18;;
69714;SDS011;56981;53.532;49.398;2023-03-01T04:05:49;5.95;;;2.17;;
69714;SDS011;56981;53.532;49.398;2023-03-01T04:08:16;8.90;;;3.85;;
69714;SDS011;56981;53.532;49.398;2023-03-01T04:10:46;9.30;;;3.17;;
69714;SDS011;56981;53.532;49.398;2023-03-01T04:13:14;10.50;;;4.00;;
69714;SDS011;56981;53.532;49.398;2023-03-01T04:15:44;10.27;;;4.15;;
69714;SDS011;56981;53.532;49.398;2023-03-01T04:18:14;8.00;;;3.45;;
69714;SDS011;56981;53.532;49.398;2023-03-01T04:20:41;6.60;;;3.35;;
69714;SDS011;56981;53.532;49.398;2023-03-01T04:23:14;7.30;;;3.85;;
69714;SDS011;56981;53.532;49.398;2023-03-01T04:28:14;9.50;;;3.70;;
69714;SDS011;56981;53.532;49.398;2023-03-01T04:30:41;9.25;;;3.70;;
69714;SDS011;56981;53.532;49.398;2023-03-01T04:33:08;6.07;;;3.78;;
69714;SDS011;56981;53.532;49.398;2023-03-01T04:35:35;7.72;;;3.60;;
69714;SDS011;56981;53.532;49.398;2023-03-01T04:38:03;6.05;;;3.05;;
69714;SDS011;56981;53.532;49.398;2023-03-01T04:40:29;2.22;;;1.58;;
69714;SDS011;56981;53.532;49.398;2023-03-01T04:42:55;8.82;;;3.95;;
69714;SDS011;56981;53.532;49.398;2023-03-01T04:45:21;4.95;;;3.20;;
69714;SDS011;56981;53.532;49.398;2023-03-01T04:47:47;8.00;;;4.30;;
69714;SDS011;56981;53.532;49.398;2023-03-01T04:50:14;8.68;;;3.90;;
69714;SDS011;56981;53.532;49.398;2023-03-01T04:52:45;7.70;;;3.67;;
69714;SDS011;56981;53.532;49.398;2023-03-01T04:55:12;7.00;;;3.20;;
69714;SDS011;56981;53.532;49.398;2023-03-01T04:57:39;7.70;;;3.35;;
69714;SDS011;56981;53.532;49.398;2023-03-01T05:00:06;11.10;;;4.20;;
69714;SDS011;56981;53.532;49.398;2023-03-01T05:02:49;7.00;;;3.60;;
69714;SDS011;56981;53.532;49.398;2023-03-01T05:05:24;10.02;;;4.18;;
69714;SDS011;56981;53.532;49.398;2023-03-01T05:07:51;7.18;;;4.00;;
69714;SDS011;56981;53.532;49.398;2023-03-01T05:10:18;7.25;;;3.92;;
69714;SDS011;56981;53.532;49.398;2023-03-01T05:12:44;7.28;;;3.42;;
69714;SDS011;56981;53.532;49.398;2023-03-01T05:15:12;8.10;;;3.42;;
69714;SDS011;56981;53.532;49.398;2023-03-01T05:17:38;7.85;;;3.30;;
69714;SDS011;56981;53.532;49.398;2023-03-01T05:20:04;5.88;;;2.85;;
69714;SDS011;56981;53.532;49.398;2023-03-01T05:22:34;6.60;;;3.72;;
69714;SDS011;56981;53.532;49.398;2023-03-01T05:25:01;7.18;;;3.33;;
69714;SDS011;56981;53.532;49.398;2023-03-01T05:27:27;5.20;;;3.10;;
69714;SDS011;56981;53.532;49.398;2023-03-01T05:29:55;4.88;;;3.10;;
69714;SDS011;56981;53.532;49.398;2023-03-01T05:32:21;7.68;;;3.30;;
69714;SDS011;56981;53.532;49.398;2023-03-01T05:34:47;10.70;;;4.38;;
69714;SDS011;56981;53.532;49.398;2023-03-01T05:37:13;6.65;;;3.15;;
69714;SDS011;56981;53.532;49.398;2023-03-01T05:39:39;7.82;;;3.55;;
69714;SDS011;56981;53.532;49.398;2023-03-01T05:42:09;4.95;;;2.40;;
69714;SDS011;56981;53.532;49.398;2023-03-01T05:44:36;7.30;;;2.90;;
69714;SDS011;56981;53.532;49.398;2023-03-01T05:47:02;7.95;;;3.60;;
69714;SDS011;56981;53.532;49.398;2023-03-01T05:49:29;6.28;;;3.28;;
69714;SDS011;56981;53.532;49.398;2023-03-01T05:51:56;3.60;;;2.40;;
69714;SDS011;56981;53.532;49.398;2023-03-01T05:54:22;6.25;;;3.92;;
69714;SDS011;56981;53.532;49.398;2023-03-01T05:56:48;5.55;;;3.05;;
69714;SDS011;56981;53.532;49.398;2023-03-01T05:59:15;5.03;;;3.03;;
69714;SDS011;56981;53.532;49.398;2023-03-01T06:01:41;4.28;;;2.65;;
69714;SDS011;56981;53.532;49.398;2023-03-01T06:04:08;5.88;;;3.00;;
69714;SDS011;56981;53.532;49.398;2023-03-01T06:06:37;4.60;;;2.80;;
69714;SDS011;56981;53.532;49.398;2023-03-01T06:09:05;6.20;;;2.95;;
69714;SDS011;56981;53.532;49.398;2023-03-01T06:11:34;4.93;;;2.90;;
69714;SDS011;56981;53.532;49.398;2023-03-01T06:14:01;5.88;;;2.83;;
69714;SDS011;56981;53.532;49.398;2023-03-01T06:16:27;5.75;;;2.92;;
69714;SDS011;56981;53.532;49.398;2023-03-01T06:18:53;6.13;;;2.70;;
69714;SDS011;56981;53.532;49.398;2023-03-01T06:21:19;4.88;;;2.95;;
69714;SDS011;56981;53.532;49.398;2023-03-01T06:23:45;5.15;;;2.67;;
69714;SDS011;56981;53.532;49.398;2023-03-01T06:26:11;4.88;;;2.20;;
69714;SDS011;56981;53.532;49.398;2023-03-01T06:28:38;5.95;;;2.70;;
69714;SDS011;56981;53.532;49.398;2023-03-01T06:31:04;5.50;;;2.83;;
69714;SDS011;56981;53.532;49.398;2023-03-01T06:33:33;3.28;;;1.50;;
69714;SDS011;56981;53.532;49.398;2023-03-01T06:35:59;5.07;;;2.78;;
69714;SDS011;56981;53.532;49.398;2023-03-01T06:38:25;4.97;;;3.10;;
69714;SDS011;56981;53.532;49.398;2023-03-01T06:40:52;4.40;;;2.85;;
69714;SDS011;56981;53.532;49.398;2023-03-01T06:43:20;4.88;;;2.45;;
69714;SDS011;56981;53.532;49.398;2023-03-01T06:45:46;6.60;;;3.17;;
69714;SDS011;56981;53.532;49.398;2023-03-01T06:48:12;4.50;;;2.58;;
69714;SDS011;56981;53.532;49.398;2023-03-01T06:50:38;4.65;;;2.10;;
69714;SDS011;56981;53.532;49.398;2023-03-01T06:53:04;5.38;;;2.33;;
69714;SDS011;56981;53.532;49.398;2023-03-01T06:55:30;7.45;;;3.63;;
69714;SDS011;56981;53.532;49.398;2023-03-01T06:57:57;7.43;;;3.15;;
69714;SDS011;56981;53.532;49.398;2023-03-01T07:00:25;4.70;;;1.92;;
69714;SDS011;56981;53.532;49.398;2023-03-01T07:02:52;2.53;;;1.40;;
69714;SDS011;56981;53.532;49.398;2023-03-01T07:05:19;1.38;;;1.27;;
69714;SDS011;56981;53.532;49.398;2023-03-01T07:07:45;6.72;;;1.42;;
69714;SDS011;56981;53.532;49.398;2023-03-01T07:10:11;2.08;;;1.10;;
69714;SDS011;56981;53.532;49.398;2023-03-01T07:12:38;3.33;;;1.33;;
69714;SDS011;56981;53.532;49.398;2023-03-01T07:15:04;2.17;;;1.48;;
69714;SDS011;56981;53.532;49.398;2023-03-01T07:17:31;5.68;;;1.50;;
69714;SDS011;56981;53.532;49.398;2023-03-01T07:19:57;3.45;;;1.77;;
69714;SDS011;56981;53.532;49.398;2023-03-01T07:22:23;6.25;;;1.92;;
69714;SDS011;56981;53.532;49.398;2023-03-01T07:24:49;2.90;;;1.23;;
69714;SDS011;56981;53.532;49.398;2023-03-01T07:27:15;2.40;;;1.05;;
69714;SDS011;56981;53.532;49.398;2023-03-01T07:29:41;3.38;;;1.52;;
69714;SDS011;56981;53.532;49.398;2023-03-01T07:32:07;1.98;;;1.17;;
69714;SDS011;56981;53.532;49.398;2023-03-01T07:34:33;3.75;;;1.30;;
69714;SDS011;56981;53.532;49.398;2023-03-01T07:36:59;4.90;;;1.38;;
69714;SDS011;56981;53.532;49.398;2023-03-01T07:39:25;3.08;;;1.52;;
69714;SDS011;56981;53.532;49.398;2023-03-01T07:41:51;4.72;;;2.17;;
69714;SDS011;56981;53.532;49.398;2023-03-01T07:44:17;4.88;;;1.77;;
69714;SDS011;56981;53.532;49.398;2023-03-01T07:46:44;5.50;;;2.10;;
69714;SDS011;56981;53.532;49.398;2023-03-01T07:49:10;3.97;;;1.45;;
69714;SDS011;56981;53.532;49.398;2023-03-01T07:51:36;4.43;;;1.63;;
69714;SDS011;56981;53.532;49.398;2023-03-01T07:54:02;6.68;;;2.17;;
69714;SDS011;56981;53.532;49.398;2023-03-01T07:56:28;3.78;;;1.38;;
69714;SDS011;56981;53.532;49.398;2023-03-01T07:58:54;5.70;;;2.10;;
69714;SDS011;56981;53.532;49.398;2023-03-01T08:01:21;2.65;;;1.27;;
69714;SDS011;56981;53.532;49.398;2023-03-01T08:03:47;2.78;;;1.23;;
69714;SDS011;56981;53.532;49.398;2023-03-01T08:06:15;3.90;;;1.42;;
69714;SDS011;56981;53.532;49.398;2023-03-01T08:08:42;3.20;;;1.10;;
69714;SDS011;56981;53.532;49.398;2023-03-01T08:11:10;1.70;;;1.08;;
69714;SDS011;56981;53.532;49.398;2023-03-01T08:13:40;2.70;;;1.60;;
69714;SDS011;56981;53.532;49.398;2023-03-01T08:16:10;2.25;;;1.02;;
69714;SDS011;56981;53.532;49.398;2023-03-01T08:18:37;2.13;;;1.17;;
69714;SDS011;56981;53.532;49.398;2023-03-01T08:21:08;1.17;;;0.68;;
69714;SDS011;56981;53.532;49.398;2023-03-01T08:23:35;1.70;;;1.60;;
69714;SDS011;56981;53.532;49.398;2023-03-01T08:26:05;2.20;;;1.00;;
69714;SDS011;56981;53.532;49.398;2023-03-01T08:28:34;2.33;;;1.52;;
69714;SDS011;56981;53.532;49.398;2023-03-01T08:31:00;2.15;;;1.20;;
69714;SDS011;56981;53.532;49.398;2023-03-01T08:33:35;2.22;;;1.27;;
69714;SDS011;56981;53.532;49.398;2023-03-01T08:36:02;1.45;;;0.90;;
69714;SDS011;56981;53.532;49.398;2023-03-01T08:38:32;2.03;;;0.93;;
69714;SDS011;56981;53.532;49.398;2023-03-01T08:41:00;3.05;;;0.90;;
69714;SDS011;56981;53.532;49.398;2023-03-01T08:43:27;3.60;;;1.25;;
69714;SDS011;56981;53.532;49.398;2023-03-01T08:45:53;2.30;;;1.02;;
69714;SDS011;56981;53.532;49.398;2023-03-01T08:48:19;2.25;;;0.82;;
69714;SDS011;56981;53.532;49.398;2023-03-01T08:50:45;5.72;;;2.20;;
69714;SDS011;56981;53.532;49.398;2023-03-01T08:53:11;17.38;;;5.32;;
69714;SDS011;56981;53.532;49.398;2023-03-01T08:55:37;5.97;;;2.47;;
69714;SDS011;56981;53.532;49.398;2023-03-01T08:58:03;4.00;;;2.60;;
69714;SDS011;56981;53.532;49.398;2023-03-01T09:00:29;2.53;;;1.50;;
69714;SDS011;56981;53.532;49.398;2023-03-01T09:02:55;3.13;;;1.00;;
69714;SDS011;56981;53.532;49.398;2023-03-01T09:05:21;4.22;;;1.58;;
69714;SDS011;56981;53.532;49.398;2023-03-01T09:07:47;1.10;;;0.95;;
69714;SDS011;56981;53.532;49.398;2023-03-01T09:10:13;2.13;;;1.42;;
69714;SDS011;56981;53.532;49.398;2023-03-01T09:12:39;1.95;;;0.82;;
69714;SDS011;56981;53.532;49.398;2023-03-01T09:15:05;1.00;;;0.90;;
69714;SDS011;56981;53.532;49.398;2023-03-01T09:17:31;2.08;;;1.00;;
69714;SDS011;56981;53.532;49.398;2023-03-01T09:19:58;2.83;;;1.25;;
69714;SDS011;56981;53.532;49.398;2023-03-01T09:22:25;1.35;;;0.80;;
69714;SDS011;56981;53.532;49.398;2023-03-01T09:24:51;1.20;;;0.80;;
69714;SDS011;56981;53.532;49.398;2023-03-01T09:27:17;3.00;;;1.55;;
69714;SDS011;56981;53.532;49.398;2023-03-01T09:29:44;0.98;;;0.75;;
69714;SDS011;56981;53.532;49.398;2023-03-01T09:32:10;1.30;;;0.85;;
69714;SDS011;56981;53.532;49.398;2023-03-01T09:34:36;4.30;;;0.90;;
69714;SDS011;56981;53.532;49.398;2023-03-01T09:37:22;1.95;;;1.02;;
69714;SDS011;56981;53.532;49.398;2023-03-01T09:39:48;5.35;;;1.45;;
69714;SDS011;56981;53.532;49.398;2023-03-01T09:42:14;6.07;;;3.25;;
69714;SDS011;56981;53.532;49.398;2023-03-01T09:44:48;3.08;;;1.50;;
69714;SDS011;56981;53.532;49.398;2023-03-01T09:47:23;2.53;;;0.88;;
69714;SDS011;56981;53.532;49.398;2023-03-01T10:01:05;4.38;;;0.60;;
69714;SDS011;56981;53.532;49.398;2023-03-01T10:06:30;2.92;;;0.80;;
69714;SDS011;56981;53.532;49.398;2023-03-01T10:08:56;2.80;;;0.90;;
69714;SDS011;56981;53.532;49.398;2023-03-01T10:11:31;3.97;;;1.15;;
69714;SDS011;56981;53.532;49.398;2023-03-01T10:16:55;5.57;;;1.25;;
69714;SDS011;56981;53.532;49.398;2023-03-01T10:19:36;4.43;;;1.00;;
69714;SDS011;56981;53.532;49.398;2023-03-01T10:22:20;2.13;;;0.73;;
69714;SDS011;56981;53.532;49.398;2023-03-01T10:24:57;2.75;;;0.70;;
69714;SDS011;56981;53.532;49.398;2023-03-01T10:30:19;3.67;;;1.05;;
69714;SDS011;56981;53.532;49.398;2023-03-01T10:32:48;3.70;;;0.75;;
69714;SDS011;56981;53.532;49.398;2023-03-01T10:35:20;1.92;;;0.90;;
69714;SDS011;56981;53.532;49.398;2023-03-01T10:40:36;1.23;;;0.60;;
69714;SDS011;56981;53.532;49.398;2023-03-01T10:43:16;2.35;;;0.63;;
69714;SDS011;56981;53.532;49.398;2023-03-01T10:45:43;2.65;;;0.90;;
69714;SDS011;56981;53.532;49.398;2023-03-01T10:48:14;2.42;;;0.70;;
69714;SDS011;56981;53.532;49.398;2023-03-01T10:53:25;2.00;;;0.43;;
69714;SDS011;56981;53.532;49.398;2023-03-01T10:56:03;5.95;;;0.88;;
69714;SDS011;56981;53.532;49.398;2023-03-01T10:58:35;1.30;;;0.77;;
69714;SDS011;56981;53.532;49.398;2023-03-01T11:01:05;3.00;;;0.68;;
69714;SDS011;56981;53.532;49.398;2023-03-01T11:03:41;1.85;;;0.40;;
69714;SDS011;56981;53.532;49.398;2023-03-01T11:08:44;1.35;;;0.50;;
69714;SDS011;56981;53.532;49.398;2023-03-01T11:11:16;2.22;;;0.57;;
69714;SDS011;56981;53.532;49.398;2023-03-01T11:14:00;1.33;;;0.63;;
69714;SDS011;56981;53.532;49.398;2023-03-01T11:16:35;1.85;;;0.60;;
69714;SDS011;56981;53.532;49.398;2023-03-01T11:19:25;1.60;;;0.70;;
69714;SDS011;56981;53.532;49.398;2023-03-01T11:24:19;2.83;;;1.33;;
69714;SDS011;56981;53.532;49.398;2023-03-01T11:26:51;1.95;;;0.40;;
69714;SDS011;56981;53.532;49.398;2023-03-01T11:29:32;2.90;;;0.60;;
69714;SDS011;56981;53.532;49.398;2023-03-01T11:32:06;2.53;;;0.50;;
69714;SDS011;56981;53.532;49.398;2023-03-01T11:34:45;0.57;;;0.45;;
69714;SDS011;56981;53.532;49.398;2023-03-01T11:44:18;5.15;;;0.73;;
69714;SDS011;56981;53.532;49.398;2023-03-01T11:46:35;2.55;;;0.90;;
69714;SDS011;56981;53.532;49.398;2023-03-01T11:52:23;1.30;;;0.82;;
69714;SDS011;56981;53.532;49.398;2023-03-01T11:57:49;2.65;;;0.50;;
69714;SDS011;56981;53.532;49.398;2023-03-01T12:00:38;1.55;;;0.50;;
69714;SDS011;56981;53.532;49.398;2023-03-01T12:17:35;1.88;;;0.90;;
69714;SDS011;56981;53.532;49.398;2023-03-01T12:23:16;2.47;;;0.80;;
69714;SDS011;56981;53.532;49.398;2023-03-01T12:25:58;1.17;;;0.63;;
69714;SDS011;56981;53.532;49.398;2023-03-01T12:31:37;1.48;;;0.50;;
69714;SDS011;56981;53.532;49.398;2023-03-01T12:50:49;0.40;;;0.40;;
69714;SDS011;56981;53.532;49.398;2023-03-01T12:53:24;3.33;;;0.90;;
69714;SDS011;56981;53.532;49.398;2023-03-01T12:55:53;1.55;;;0.75;;
69714;SDS011;56981;53.532;49.398;2023-03-01T12:58:24;1.58;;;0.60;;
69714;SDS011;56981;53.532;49.398;2023-03-01T13:01:31;3.90;;;0.90;;
69714;SDS011;56981;53.532;49.398;2023-03-01T13:04:10;1.63;;;0.75;;
69714;SDS011;56981;53.532;49.398;2023-03-01T13:17:57;1.83;;;0.88;;
69714;SDS011;56981;53.532;49.398;2023-03-01T13:20:45;3.50;;;0.63;;
69714;SDS011;56981;53.532;49.398;2023-03-01T13:28:38;0.85;;;0.52;;
69714;SDS011;56981;53.532;49.398;2023-03-01T13:31:11;0.45;;;0.45;;
69714;SDS011;56981;53.532;49.398;2023-03-01T13:33:57;2.40;;;1.02;;
69714;SDS011;56981;53.532;49.398;2023-03-01T13:46:53;6.90;;;2.05;;
69714;SDS011;56981;53.532;49.398;2023-03-01T13:49:26;8.35;;;1.50;;
69714;SDS011;56981;53.532;49.398;2023-03-01T13:51:55;5.82;;;2.03;;
69714;SDS011;56981;53.532;49.398;2023-03-01T13:54:26;6.78;;;2.25;;
69714;SDS011;56981;53.532;49.398;2023-03-01T13:56:57;5.00;;;1.65;;
69714;SDS011;56981;53.532;49.398;2023-03-01T13:59:25;3.15;;;2.00;;
69714;SDS011;56981;53.532;49.398;2023-03-01T14:01:59;6.13;;;1.63;;
69714;SDS011;56981;53.532;49.398;2023-03-01T14:04:30;6.40;;;1.30;;
69714;SDS011;56981;53.532;49.398;2023-03-01T14:07:11;2.92;;;1.23;;
69714;SDS011;56981;53.532;49.398;2023-03-01T14:09:43;4.72;;;1.15;;
69714;SDS011;56981;53.532;49.398;2023-03-01T14:15:31;1.65;;;1.20;;
69714;SDS011;56981;53.532;49.398;2023-03-01T14:20:47;2.17;;;1.20;;
69714;SDS011;56981;53.532;49.398;2023-03-01T14:23:21;2.50;;;1.25;;
69714;SDS011;56981;53.532;49.398;2023-03-01T14:25:53;2.50;;;0.98;;
69714;SDS011;56981;53.532;49.398;2023-03-01T14:28:24;5.47;;;1.50;;
69714;SDS011;56981;53.532;49.398;2023-03-01T14:30:53;6.10;;;2.15;;
69714;SDS011;56981;53.532;49.398;2023-03-01T14:33:25;4.38;;;1.48;;
69714;SDS011;56981;53.532;49.398;2023-03-01T14:36:05;5.25;;;1.92;;
69714;SDS011;56981;53.532;49.398;2023-03-01T14:38:34;3.67;;;1.50;;
69714;SDS011;56981;53.532;49.398;2023-03-01T14:41:09;4.13;;;1.13;;
69714;SDS011;56981;53.532;49.398;2023-03-01T14:43:46;2.50;;;0.63;;
69714;SDS011;56981;53.532;49.398;2023-03-01T14:46:19;1.75;;;0.85;;
69714;SDS011;56981;53.532;49.398;2023-03-01T14:48:50;5.70;;;1.00;;
69714;SDS011;56981;53.532;49.398;2023-03-01T14:51:18;3.83;;;1.20;;
69714;SDS011;56981;53.532;49.398;2023-03-01T14:53:44;3.03;;;1.00;;
69714;SDS011;56981;53.532;49.398;2023-03-01T14:56:14;2.28;;;0.85;;
69714;SDS011;56981;53.532;49.398;2023-03-01T14:58:45;3.63;;;1.10;;
69714;SDS011;56981;53.532;49.398;2023-03-01T15:01:16;1.02;;;0.50;;
69714;SDS011;56981;53.532;49.398;2023-03-01T15:03:45;4.50;;;1.02;;
69714;SDS011;56981;53.532;49.398;2023-03-01T15:06:15;2.17;;;0.90;;
69714;SDS011;56981;53.532;49.398;2023-03-01T15:08:47;1.50;;;0.90;;
69714;SDS011;56981;53.532;49.398;2023-03-01T15:13:48;2.03;;;0.60;;
69714;SDS011;56981;53.532;49.398;2023-03-01T15:16:18;4.32;;;1.20;;
69714;SDS011;56981;53.532;49.398;2023-03-01T15:18:49;4.85;;;1.05;;
69714;SDS011;56981;53.532;49.398;2023-03-01T15:21:22;3.92;;;1.10;;
69714;SDS011;56981;53.532;49.398;2023-03-01T15:24:03;1.13;;;0.77;;
69714;SDS011;56981;53.532;49.398;2023-03-01T15:26:58;4.57;;;1.30;;
69714;SDS011;56981;53.532;49.398;2023-03-01T15:29:32;3.70;;;1.60;;
69714;SDS011;56981;53.532;49.398;2023-03-01T15:32:20;5.18;;;1.25;;
69714;SDS011;56981;53.532;49.398;2023-03-01T15:35:00;5.78;;;1.15;;
69714;SDS011;56981;53.532;49.398;2023-03-01T15:37:47;0.90;;;0.50;;
69714;SDS011;56981;53.532;49.398;2023-03-01T15:40:24;1.42;;;0.98;;
69714;SDS011;56981;53.532;49.398;2023-03-01T15:42:59;3.28;;;0.75;;
69714;SDS011;56981;53.532;49.398;2023-03-01T15:45:46;4.32;;;0.98;;
69714;SDS011;56981;53.532;49.398;2023-03-01T15:48:23;2.08;;;1.15;;
69714;SDS011;56981;53.532;49.398;2023-03-01T15:50:55;1.70;;;1.17;;
69714;SDS011;56981;53.532;49.398;2023-03-01T15:53:24;2.45;;;0.57;;
69714;SDS011;56981;53.532;49.398;2023-03-01T15:55:52;0.82;;;0.70;;
69714;SDS011;56981;53.532;49.398;2023-03-01T15:58:27;3.17;;;0.73;;
69714;SDS011;56981;53.532;49.398;2023-03-01T16:00:54;3.67;;;1.83;;
69714;SDS011;56981;53.532;49.398;2023-03-01T16:03:24;3.25;;;1.02;;
69714;SDS011;56981;53.532;49.398;2023-03-01T16:05:51;0.70;;;0.60;;
69714;SDS011;56981;53.532;49.398;2023-03-01T16:08:18;2.10;;;0.93;;
69714;SDS011;56981;53.532;49.398;2023-03-01T16:10:45;1.05;;;0.68;;
69714;SDS011;56981;53.532;49.398;2023-03-01T16:13:22;2.92;;;1.02;;
69714;SDS011;56981;53.532;49.398;2023-03-01T16:15:50;1.52;;;0.95;;
69714;SDS011;56981;53.532;49.398;2023-03-01T16:18:18;4.70;;;0.88;;
69714;SDS011;56981;53.532;49.398;2023-03-01T16:20:46;3.42;;;0.88;;
69714;SDS011;56981;53.532;49.398;2023-03-01T16:23:14;2.05;;;0.68;;
69714;SDS011;56981;53.532;49.398;2023-03-01T16:25:41;1.33;;;0.80;;
69714;SDS011;56981;53.532;49.398;2023-03-01T16:28:07;2.25;;;0.60;;
69714;SDS011;56981;53.532;49.398;2023-03-01T16:30:37;0.25;;;0.22;;
69714;SDS011;56981;53.532;49.398;2023-03-01T16:33:05;3.58;;;0.57;;
69714;SDS011;56981;53.532;49.398;2023-03-01T16:35:33;4.57;;;1.20;;
69714;SDS011;56981;53.532;49.398;2023-03-01T16:40:31;1.23;;;0.73;;
69714;SDS011;56981;53.532;49.398;2023-03-01T16:42:58;4.30;;;1.13;;
69714;SDS011;56981;53.532;49.398;2023-03-01T16:45:32;2.38;;;0.90;;
69714;SDS011;56981;53.532;49.398;2023-03-01T16:48:01;1.02;;;0.60;;
69714;SDS011;56981;53.532;49.398;2023-03-01T16:50:28;0.95;;;0.70;;
69714;SDS011;56981;53.532;49.398;2023-03-01T16:52:55;1.35;;;0.60;;
69714;SDS011;56981;53.532;49.398;2023-03-01T16:55:21;4.03;;;1.42;;
69714;SDS011;56981;53.532;49.398;2023-03-01T16:57:49;4.55;;;1.13;;
69714;SDS011;56981;53.532;49.398;2023-03-01T17:00:16;1.55;;;0.57;;
69714;SDS011;56981;53.532;49.398;2023-03-01T17:02:43;1.05;;;0.30;;